createdAt,value
2023-04-18T00:00:12.488Z,18.73
2023-04-18T00:02:40.257Z,17.52
2023-04-18T00:05:08.491Z,17.75
2023-04-18T00:07:35.647Z,17.20
2023-04-18T00:10:04.041Z,17.80
2023-04-18T00:12:31.933Z,17.10
2023-04-18T00:14:58.805Z,18.20
2023-04-18T00:17:28.531Z,17.70
2023-04-18T00:19:56.407Z,16.30
2023-04-18T00:22:23.610Z,15.40
2023-04-18T00:24:53.703Z,16.00
2023-04-18T00:27:21.847Z,14.90
2023-04-18T00:29:48.846Z,15.63
2023-04-18T00:32:16.019Z,14.23
2023-04-18T00:34:42.762Z,14.13
2023-04-18T00:37:09.749Z,13.98
2023-04-18T00:39:36.753Z,13.18
2023-04-18T00:42:04.248Z,12.23
2023-04-18T00:44:32.206Z,13.10
2023-04-18T00:46:59.280Z,12.50
2023-04-18T00:49:26.952Z,13.52
2023-04-18T00:51:55.871Z,12.32
2023-04-18T00:54:24.085Z,12.35
2023-04-18T00:56:51.376Z,11.65
2023-04-18T00:59:18.527Z,12.82
2023-04-18T01:01:45.564Z,11.70
2023-04-18T01:04:12.670Z,10.73
2023-04-18T01:06:40.701Z,11.25
2023-04-18T01:09:07.556Z,11.30
2023-04-18T01:11:34.351Z,10.63
2023-04-18T01:14:07.349Z,10.43
2023-04-18T01:16:34.268Z,9.73
2023-04-18T01:19:02.066Z,10.45
2023-04-18T01:21:33.894Z,10.02
2023-04-18T01:24:14.921Z,9.57
2023-04-18T01:26:47.872Z,9.93
2023-04-18T01:29:14.896Z,10.25
2023-04-18T01:31:42.101Z,9.80
2023-04-18T01:34:09.292Z,9.10
2023-04-18T01:36:37.987Z,9.85
2023-04-18T01:39:05.042Z,8.65
2023-04-18T01:41:32.814Z,8.55
2023-04-18T01:44:00.456Z,8.43
2023-04-18T01:46:28.166Z,8.43
2023-04-18T01:48:55.827Z,8.55
2023-04-18T01:51:22.812Z,8.82
2023-04-18T01:53:49.788Z,8.55
2023-04-18T01:56:16.625Z,7.88
2023-04-18T01:58:43.580Z,9.75
2023-04-18T02:01:10.486Z,8.45
2023-04-18T02:03:37.616Z,8.15
2023-04-18T02:06:06.117Z,7.85
2023-04-18T02:08:35.656Z,9.18
2023-04-18T02:11:02.757Z,8.13
2023-04-18T02:13:29.506Z,8.68
2023-04-18T02:15:56.418Z,8.70
2023-04-18T02:18:24.893Z,9.30
2023-04-18T02:20:52.266Z,8.43
2023-04-18T02:23:19.573Z,9.57
2023-04-18T02:25:46.589Z,9.52
2023-04-18T02:28:13.359Z,8.98
2023-04-18T02:30:40.120Z,9.07
2023-04-18T02:33:06.958Z,9.35
2023-04-18T02:35:33.796Z,9.40
2023-04-18T02:38:00.662Z,9.52
2023-04-18T02:40:27.532Z,10.00
2023-04-18T02:42:54.351Z,8.55
2023-04-18T02:45:21.150Z,9.13
2023-04-18T02:47:55.545Z,9.70
2023-04-18T02:50:24.205Z,10.07
2023-04-18T02:52:50.974Z,9.65
2023-04-18T02:55:17.889Z,9.93
2023-04-18T02:57:44.716Z,10.48
2023-04-18T03:00:13.546Z,10.85
2023-04-18T03:02:40.471Z,10.32
2023-04-18T03:05:07.857Z,10.50
2023-04-18T03:07:34.676Z,10.25
2023-04-18T03:10:01.579Z,10.25
2023-04-18T03:12:28.391Z,10.93
2023-04-18T03:14:55.148Z,10.68
2023-04-18T03:17:22.069Z,11.30
2023-04-18T03:19:48.982Z,11.23
2023-04-18T03:22:16.303Z,11.32
2023-04-18T03:24:43.047Z,10.75
2023-04-18T03:27:09.850Z,11.20
2023-04-18T03:29:36.712Z,10.93
2023-04-18T03:32:03.628Z,10.70
2023-04-18T03:34:30.519Z,10.75
2023-04-18T03:36:57.360Z,11.50
2023-04-18T03:39:24.118Z,11.43
2023-04-18T03:41:52.211Z,12.43
2023-04-18T03:44:19.124Z,11.77
2023-04-18T03:46:46.321Z,11.00
2023-04-18T03:49:13.310Z,10.90
2023-04-18T03:51:49.130Z,12.15
2023-04-18T03:54:17.135Z,11.55
2023-04-18T03:56:44.373Z,11.10
2023-04-18T03:59:11.813Z,11.98
2023-04-18T04:01:38.657Z,11.23
2023-04-18T04:04:05.740Z,10.65
2023-04-18T04:06:32.661Z,11.63
2023-04-18T04:08:59.563Z,11.73
2023-04-18T04:11:26.809Z,11.68
2023-04-18T04:13:53.586Z,11.43
2023-04-18T04:16:20.548Z,11.00
2023-04-18T04:18:47.356Z,12.18
2023-04-18T04:21:14.269Z,11.80
2023-04-18T04:23:42.530Z,11.00
2023-04-18T04:26:09.852Z,14.38
2023-04-18T04:28:36.723Z,12.35
2023-04-18T04:31:08.132Z,12.48
2023-04-18T04:36:02.542Z,12.60
2023-04-18T04:38:30.987Z,12.73
2023-04-18T04:40:58.423Z,12.63
2023-04-18T04:43:26.042Z,12.85
2023-04-18T04:45:53.163Z,12.70
2023-04-18T04:48:22.072Z,12.93
2023-04-18T04:50:53.606Z,12.57
2023-04-18T04:55:47.269Z,11.20
2023-04-18T04:58:14.135Z,11.88
2023-04-18T05:00:41.065Z,13.10
2023-04-18T05:03:08.345Z,12.55
2023-04-18T05:05:35.717Z,12.60
2023-04-18T05:08:03.170Z,12.27
2023-04-18T05:10:30.490Z,11.88
2023-04-18T05:12:57.330Z,12.55
2023-04-18T05:15:24.847Z,13.07
2023-04-18T05:17:51.730Z,13.32
2023-04-18T05:20:18.642Z,12.95
2023-04-18T05:22:45.510Z,13.27
2023-04-18T05:25:12.764Z,13.70
2023-04-18T05:27:39.702Z,13.57
2023-04-18T05:30:07.178Z,13.88
2023-04-18T05:32:34.411Z,13.57
2023-04-18T05:35:01.370Z,12.68
2023-04-18T05:37:28.122Z,11.18
2023-04-18T05:39:54.918Z,12.80
2023-04-18T05:42:21.662Z,13.07
2023-04-18T05:44:48.532Z,13.15
2023-04-18T05:47:15.651Z,12.48
2023-04-18T05:49:42.361Z,12.52
2023-04-18T05:52:09.304Z,13.27
2023-04-18T05:54:36.395Z,13.65
2023-04-18T05:57:04.538Z,13.75
2023-04-18T05:59:31.703Z,13.10
2023-04-18T06:01:58.493Z,12.25
2023-04-18T06:04:25.399Z,13.70
2023-04-18T06:06:52.526Z,13.20
2023-04-18T06:09:19.424Z,13.60
2023-04-18T06:11:46.328Z,12.52
2023-04-18T06:14:13.461Z,13.60
2023-04-18T06:16:40.663Z,13.60
2023-04-18T06:19:07.534Z,13.35
2023-04-18T06:21:34.311Z,13.88
2023-04-18T06:24:13.741Z,12.98
2023-04-18T06:26:40.759Z,13.43
2023-04-18T06:29:13.454Z,12.75
2023-04-18T06:31:42.133Z,13.68
2023-04-18T06:34:09.277Z,12.85
2023-04-18T06:36:36.277Z,13.10
2023-04-18T06:39:03.526Z,11.98
2023-04-18T06:41:31.373Z,12.90
2023-04-18T06:46:28.009Z,13.15
2023-04-18T06:48:54.887Z,12.52
2023-04-18T06:51:21.749Z,11.77
2023-04-18T06:53:48.667Z,13.05
2023-04-18T06:56:15.910Z,12.63
2023-04-18T06:58:42.867Z,14.73
2023-04-18T07:01:09.855Z,11.40
2023-04-18T07:03:36.954Z,11.63
2023-04-18T07:06:04.840Z,11.98
2023-04-18T07:08:31.585Z,11.70
2023-04-18T07:10:58.432Z,11.52
2023-04-18T07:13:25.303Z,11.27
2023-04-18T07:15:52.330Z,11.63
2023-04-18T07:18:30.293Z,10.35
2023-04-18T07:21:02.124Z,11.07
2023-04-18T07:23:29.117Z,11.07
2023-04-18T07:25:58.725Z,10.27
2023-04-18T07:28:25.589Z,11.55
2023-04-18T07:30:52.367Z,11.10
2023-04-18T07:33:19.159Z,10.13
2023-04-18T07:35:46.662Z,9.25
2023-04-18T07:38:13.629Z,8.88
2023-04-18T07:40:40.448Z,8.63
2023-04-18T07:43:07.268Z,8.98
2023-04-18T07:45:36.506Z,8.63
2023-04-18T07:48:03.409Z,8.63
2023-04-18T07:50:30.267Z,8.73
2023-04-18T07:52:57.112Z,7.80
2023-04-18T07:55:24.246Z,8.07
2023-04-18T07:57:51.098Z,7.78
2023-04-18T08:00:20.839Z,8.02
2023-04-18T08:02:51.197Z,7.68
2023-04-18T08:05:19.994Z,8.83
2023-04-18T08:07:46.946Z,7.68
2023-04-18T08:10:13.873Z,7.30
2023-04-18T08:12:41.043Z,7.32
2023-04-18T08:15:08.637Z,7.60
2023-04-18T08:17:35.972Z,6.93
2023-04-18T08:20:07.466Z,7.57
2023-04-18T08:25:05.347Z,6.93
2023-04-18T08:27:33.297Z,6.45
2023-04-18T08:30:00.910Z,5.75
2023-04-18T08:32:27.799Z,5.78
2023-04-18T08:34:56.219Z,6.45
2023-04-18T08:40:08.765Z,6.28
2023-04-18T08:42:38.263Z,6.70
2023-04-18T08:45:06.945Z,5.53
2023-04-18T08:47:35.787Z,6.13
2023-04-18T08:50:04.169Z,3.83
2023-04-18T08:52:36.720Z,4.32
2023-04-18T08:55:09.408Z,4.90
2023-04-18T08:57:36.459Z,4.93
2023-04-18T09:00:09.433Z,5.03
2023-04-18T09:02:47.474Z,4.65
2023-04-18T09:05:19.856Z,5.35
2023-04-18T09:07:51.683Z,4.95
2023-04-18T09:10:34.764Z,4.70
2023-04-18T09:13:06.291Z,5.70
2023-04-18T09:15:34.472Z,5.35
2023-04-18T09:18:03.057Z,4.70
2023-04-18T09:20:41.236Z,4.70
2023-04-18T09:23:16.529Z,4.07
2023-04-18T09:25:51.023Z,5.60
2023-04-18T09:28:28.118Z,5.70
2023-04-18T09:31:00.138Z,5.45
2023-04-18T09:33:29.398Z,5.97
2023-04-18T09:35:57.330Z,5.20
2023-04-18T09:38:41.047Z,4.10
2023-04-18T09:41:12.546Z,5.82
2023-04-18T09:43:41.015Z,5.03
2023-04-18T09:46:08.950Z,5.47
2023-04-18T09:48:36.106Z,4.88
2023-04-18T09:51:08.138Z,5.10
2023-04-18T09:53:40.630Z,4.07
2023-04-18T09:56:14.685Z,4.57
2023-04-18T09:58:43.957Z,4.93
2023-04-18T10:01:13.394Z,7.60
2023-04-18T10:03:58.680Z,5.25
2023-04-18T10:06:28.796Z,5.40
2023-04-18T10:08:56.298Z,5.43
2023-04-18T10:11:24.423Z,5.72
2023-04-18T10:13:57.836Z,6.20
2023-04-18T10:16:26.198Z,6.15
2023-04-18T10:18:53.064Z,6.25
2023-04-18T10:21:22.874Z,6.32
2023-04-18T10:23:51.912Z,7.03
2023-04-18T10:26:18.760Z,6.80
2023-04-18T10:28:53.839Z,7.47
2023-04-18T10:31:28.605Z,6.70
2023-04-18T10:36:29.288Z,6.10
2023-04-18T10:39:00.947Z,7.68
2023-04-18T10:41:30.202Z,6.25
2023-04-18T10:44:14.593Z,6.68
2023-04-18T10:46:56.120Z,6.70
2023-04-18T10:49:30.317Z,6.28
2023-04-18T10:52:00.425Z,5.65
2023-04-18T10:54:41.945Z,5.35
2023-04-18T10:57:10.088Z,5.13
2023-04-18T10:59:41.617Z,4.97
2023-04-18T11:02:32.525Z,5.50
2023-04-18T11:05:02.128Z,4.93
2023-04-18T11:07:39.764Z,4.50
2023-04-18T11:10:10.348Z,4.82
2023-04-18T11:12:39.689Z,5.50
2023-04-18T11:15:22.592Z,5.40
2023-04-18T11:18:03.907Z,5.35
2023-04-18T11:20:39.135Z,5.47
2023-04-18T11:23:21.528Z,5.25
2023-04-18T11:25:52.033Z,6.00
2023-04-18T11:28:24.815Z,5.22
2023-04-18T11:30:51.738Z,5.65
2023-04-18T11:33:18.647Z,5.80
2023-04-18T11:35:48.776Z,5.85
2023-04-18T11:38:16.580Z,5.60
2023-04-18T11:40:52.404Z,7.30
2023-04-18T11:43:21.738Z,7.95
2023-04-18T11:45:56.568Z,8.15
2023-04-18T11:48:33.893Z,6.07
2023-04-18T11:51:01.234Z,6.30
2023-04-18T11:53:36.458Z,6.90
2023-04-18T11:56:04.662Z,7.57
2023-04-18T11:58:34.129Z,6.32
2023-04-18T12:01:25.544Z,6.63
2023-04-18T12:04:30.456Z,7.68
2023-04-18T12:06:57.872Z,6.53
2023-04-18T12:09:25.263Z,8.30
2023-04-18T12:12:00.684Z,13.52
2023-04-18T12:14:28.487Z,7.38
2023-04-18T12:16:56.415Z,7.03
2023-04-18T12:19:28.479Z,7.45
2023-04-18T12:22:05.481Z,7.38
2023-04-18T12:24:33.038Z,6.57
2023-04-18T12:27:00.283Z,6.53
2023-04-18T12:29:28.625Z,7.82
2023-04-18T12:31:57.131Z,7.70
2023-04-18T12:34:30.363Z,8.48
2023-04-18T12:36:58.872Z,7.82
2023-04-18T12:39:26.334Z,8.57
2023-04-18T12:41:53.217Z,10.15
2023-04-18T12:44:20.258Z,7.97
2023-04-18T12:46:47.157Z,8.27
2023-04-18T12:49:14.105Z,8.27
2023-04-18T12:51:40.920Z,9.25
2023-04-18T12:54:07.779Z,9.57
2023-04-18T12:56:35.539Z,9.20
2023-04-18T12:59:03.650Z,9.88
2023-04-18T13:01:30.618Z,13.13
2023-04-18T13:04:10.894Z,10.48
2023-04-18T13:06:39.689Z,9.52
2023-04-18T13:09:06.592Z,10.43
2023-04-18T13:11:33.394Z,10.38
2023-04-18T13:14:00.344Z,10.23
2023-04-18T13:16:27.455Z,15.15
2023-04-18T13:27:02.508Z,10.30
2023-04-18T13:29:29.537Z,11.02
2023-04-18T13:31:56.612Z,10.00
2023-04-18T13:34:23.588Z,10.43
2023-04-18T13:36:59.286Z,11.10
2023-04-18T13:39:26.244Z,11.35
2023-04-18T13:41:54.857Z,11.02
2023-04-18T13:44:21.812Z,13.27
2023-04-18T13:46:49.285Z,11.55
2023-04-18T13:49:16.304Z,10.75
2023-04-18T13:51:43.267Z,9.60
2023-04-18T13:54:10.443Z,10.75
2023-04-18T13:56:37.404Z,11.15
2023-04-18T13:59:04.269Z,10.93
2023-04-18T14:01:31.182Z,10.75
2023-04-18T14:03:58.399Z,10.45
2023-04-18T14:06:27.890Z,10.77
2023-04-18T14:08:54.746Z,10.45
2023-04-18T14:11:21.656Z,9.57
2023-04-18T14:13:48.480Z,10.50
2023-04-18T14:16:15.450Z,10.20
2023-04-18T14:18:42.459Z,8.13
2023-04-18T14:21:09.704Z,9.63
2023-04-18T14:23:37.884Z,9.25
2023-04-18T14:26:05.643Z,9.27
2023-04-18T14:28:35.431Z,10.00
2023-04-18T14:31:08.743Z,10.07
2023-04-18T14:33:45.058Z,8.60
2023-04-18T14:36:12.837Z,9.52
2023-04-18T14:38:40.328Z,8.95
2023-04-18T14:41:07.406Z,9.82
2023-04-18T14:43:34.299Z,9.73
2023-04-18T14:46:01.272Z,9.07
2023-04-18T14:48:31.482Z,10.20
2023-04-18T14:50:59.387Z,10.43
2023-04-18T14:53:27.181Z,10.63
2023-04-18T14:55:54.438Z,9.02
2023-04-18T14:58:21.321Z,9.07
2023-04-18T15:00:49.301Z,10.00
2023-04-18T15:03:19.331Z,10.00
2023-04-18T15:05:49.243Z,10.82
2023-04-18T15:08:16.413Z,9.32
2023-04-18T15:10:46.633Z,11.32
2023-04-18T15:13:13.696Z,10.30
2023-04-18T15:15:41.867Z,9.65
2023-04-18T15:18:09.057Z,8.55
2023-04-18T15:20:37.133Z,10.10
2023-04-18T15:23:04.251Z,9.43
2023-04-18T15:25:31.715Z,8.20
2023-04-18T15:27:58.759Z,9.57
2023-04-18T15:30:25.847Z,8.63
2023-04-18T15:32:54.117Z,9.60
2023-04-18T15:35:24.442Z,8.93
2023-04-18T15:37:53.967Z,9.30
2023-04-18T15:40:21.043Z,8.27
2023-04-18T15:42:49.612Z,8.15
2023-04-18T15:45:16.741Z,9.00
2023-04-18T15:47:43.725Z,12.10
2023-04-18T15:50:11.326Z,10.00
2023-04-18T15:52:41.074Z,9.48
2023-04-18T15:55:10.322Z,8.82
2023-04-18T15:57:37.383Z,9.50
2023-04-18T16:00:34.167Z,8.98
2023-04-18T16:03:01.295Z,9.18
2023-04-18T16:05:29.652Z,8.32
2023-04-18T16:08:09.905Z,8.82
2023-04-18T16:10:38.295Z,8.35
2023-04-18T16:13:06.831Z,7.88
2023-04-18T16:15:41.716Z,8.98
2023-04-18T16:18:09.686Z,9.73
2023-04-18T16:20:36.942Z,8.95
2023-04-18T16:23:03.936Z,9.52
2023-04-18T16:25:31.325Z,6.35
2023-04-18T16:27:58.417Z,9.00
2023-04-18T16:30:25.271Z,8.88
2023-04-18T16:32:52.537Z,8.20
2023-04-18T16:35:19.740Z,8.50
2023-04-18T16:37:48.896Z,8.38
2023-04-18T16:40:16.225Z,8.60
2023-04-18T16:42:43.152Z,8.85
2023-04-18T16:45:15.064Z,8.93
2023-04-18T16:47:44.925Z,8.48
2023-04-18T16:50:12.763Z,9.35
2023-04-18T16:52:41.290Z,10.38
2023-04-18T16:55:11.844Z,10.02
2023-04-18T17:00:10.371Z,8.70
2023-04-18T17:02:43.279Z,9.90
2023-04-18T17:05:11.324Z,8.00
2023-04-18T17:07:41.320Z,10.43
2023-04-18T17:10:10.595Z,9.32
2023-04-18T17:12:37.749Z,9.23
2023-04-18T17:15:04.889Z,8.65
2023-04-18T17:17:31.731Z,7.50
2023-04-18T17:20:00.059Z,8.57
2023-04-18T17:22:53.963Z,8.38
2023-04-18T17:25:21.649Z,7.63
2023-04-18T17:27:51.922Z,8.88
2023-04-18T17:30:18.977Z,10.60
2023-04-18T17:32:47.283Z,7.97
2023-04-18T17:35:14.945Z,9.00
2023-04-18T17:37:42.819Z,7.40
2023-04-18T17:40:12.528Z,9.77
2023-04-18T17:42:40.541Z,9.35
2023-04-18T17:45:09.891Z,8.88
2023-04-18T17:47:44.092Z,8.98
2023-04-18T17:50:11.894Z,10.77
2023-04-18T17:52:40.778Z,8.65
2023-04-18T17:55:09.842Z,7.43
2023-04-18T17:57:38.525Z,8.68
2023-04-18T18:00:13.012Z,9.35
2023-04-18T18:02:41.873Z,15.48
2023-04-18T18:05:16.612Z,8.82
2023-04-18T18:07:48.242Z,9.57
2023-04-18T18:10:21.193Z,10.25
2023-04-18T18:12:48.758Z,9.32
2023-04-18T18:15:15.796Z,8.15
2023-04-18T18:17:43.368Z,9.48
2023-04-18T18:20:16.438Z,9.73
2023-04-18T18:22:45.897Z,9.07
2023-04-18T18:25:37.189Z,8.68
2023-04-18T18:28:05.949Z,10.40
2023-04-18T18:30:34.860Z,11.27
2023-04-18T18:33:02.670Z,9.75
2023-04-18T18:35:31.130Z,9.38
2023-04-18T18:37:59.472Z,10.25
2023-04-18T18:40:29.429Z,11.13
2023-04-18T18:42:59.872Z,7.78
2023-04-18T18:45:26.932Z,10.07
2023-04-18T18:47:54.240Z,10.55
2023-04-18T18:50:22.701Z,8.77
2023-04-18T18:53:04.365Z,9.35
2023-04-18T18:55:51.508Z,9.27
2023-04-18T18:58:20.737Z,8.50
2023-04-18T19:00:47.851Z,8.85
2023-04-18T19:03:19.370Z,8.55
2023-04-18T19:08:16.059Z,8.32
2023-04-18T19:10:43.231Z,10.45
2023-04-18T19:13:12.491Z,10.80
2023-04-18T19:15:39.749Z,12.93
2023-04-18T19:18:07.043Z,10.57
2023-04-18T19:20:39.298Z,12.02
2023-04-18T19:23:06.858Z,9.00
2023-04-18T19:25:34.847Z,11.02
2023-04-18T19:28:06.697Z,7.75
2023-04-18T19:30:34.742Z,6.78
2023-04-18T19:33:02.933Z,7.40
2023-04-18T19:35:33.408Z,6.88
2023-04-18T19:38:07.969Z,8.38
2023-04-18T19:40:34.735Z,7.63
2023-04-18T19:43:01.528Z,6.82
2023-04-18T19:45:31.084Z,7.07
2023-04-18T19:47:58.258Z,7.03
2023-04-18T19:50:25.260Z,7.38
2023-04-18T19:52:58.123Z,6.53
2023-04-18T19:55:25.260Z,6.57
2023-04-18T19:57:57.071Z,6.78
2023-04-18T20:00:23.967Z,6.63
2023-04-18T20:02:51.362Z,6.80
2023-04-18T20:05:19.045Z,7.25
2023-04-18T20:07:46.216Z,6.25
2023-04-18T20:10:13.214Z,7.03
2023-04-18T20:12:40.294Z,7.03
2023-04-18T20:15:08.372Z,7.43
2023-04-18T20:17:35.391Z,6.18
2023-04-18T20:20:08.162Z,6.13
2023-04-18T20:22:35.131Z,6.55
2023-04-18T20:25:02.323Z,6.13
2023-04-18T20:27:29.344Z,6.32
2023-04-18T20:29:57.316Z,8.27
2023-04-18T20:32:24.399Z,6.30
2023-04-18T20:34:51.815Z,7.38
2023-04-18T20:37:20.057Z,5.88
2023-04-18T20:39:47.732Z,6.50
2023-04-18T20:42:16.233Z,6.68
2023-04-18T20:44:44.930Z,6.80
2023-04-18T20:47:15.253Z,6.35
2023-04-18T20:49:42.759Z,8.80
2023-04-18T20:52:09.925Z,7.03
2023-04-18T20:54:36.896Z,7.35
2023-04-18T20:57:04.171Z,6.25
2023-04-18T20:59:31.422Z,6.78
2023-04-18T21:01:58.743Z,6.47
2023-04-18T21:04:25.907Z,6.70
2023-04-18T21:06:52.952Z,6.80
2023-04-18T21:09:20.215Z,6.88
2023-04-18T21:11:47.059Z,6.78
2023-04-18T21:14:14.800Z,6.72
2023-04-18T21:16:43.219Z,7.03
2023-04-18T21:19:11.135Z,6.78
2023-04-18T21:21:37.996Z,7.60
2023-04-18T21:24:06.505Z,6.70
2023-04-18T21:26:33.411Z,6.07
2023-04-18T21:29:01.285Z,6.25
2023-04-18T21:31:30.840Z,5.95
2023-04-18T21:34:02.503Z,7.03
2023-04-18T21:36:31.333Z,5.88
2023-04-18T21:39:00.851Z,6.88
2023-04-18T21:41:27.902Z,6.63
2023-04-18T21:43:54.822Z,6.57
2023-04-18T21:46:21.855Z,5.82
2023-04-18T21:48:50.708Z,6.57
2023-04-18T21:51:20.186Z,7.30
2023-04-18T21:53:48.499Z,6.65
2023-04-18T21:56:16.925Z,6.50
2023-04-18T21:58:43.800Z,6.90
2023-04-18T22:01:10.669Z,6.78
2023-04-18T22:03:37.877Z,6.47
2023-04-18T22:06:05.292Z,6.57
2023-04-18T22:08:32.673Z,6.88
2023-04-18T22:11:00.364Z,6.47
2023-04-18T22:13:34.682Z,6.53
2023-04-18T22:16:03.268Z,6.97
2023-04-18T22:18:33.963Z,6.43
2023-04-18T22:21:02.377Z,6.03
2023-04-18T22:23:30.069Z,6.68
2023-04-18T22:25:56.979Z,6.82
2023-04-18T22:28:26.759Z,7.72
2023-04-18T22:31:02.925Z,6.68
2023-04-18T22:33:29.964Z,7.18
2023-04-18T22:35:56.822Z,6.38
2023-04-18T22:38:25.412Z,6.88
2023-04-18T22:40:52.502Z,7.10
2023-04-18T22:43:22.971Z,6.97
2023-04-18T22:45:51.941Z,7.50
2023-04-18T22:48:19.580Z,6.30
2023-04-18T22:50:46.560Z,6.80
2023-04-18T22:53:15.232Z,6.10
2023-04-18T22:55:44.078Z,7.00
2023-04-18T22:58:13.713Z,6.90
2023-04-18T23:00:40.974Z,6.68
2023-04-18T23:03:08.100Z,6.40
2023-04-18T23:05:37.587Z,6.70
2023-04-18T23:08:06.908Z,6.45
2023-04-18T23:10:35.720Z,7.07
2023-04-18T23:13:02.507Z,7.22
2023-04-18T23:26:19.152Z,6.65
2023-04-18T23:32:35.693Z,7.53
2023-04-18T23:46:39.018Z,8.10
2023-04-18T23:49:45.185Z,9.60
2023-04-18T23:52:12.062Z,8.02
